Time;durP1;ratioP1;P1;durP2;ratioP2;P2;SDS_P1;SDS_P2;PMS_P1;PMS_P2;Temp;Humidity;BMP_temperature;BMP_pressure;BME280_temperature;BME280_humidity;BME280_pressure;Samples;Min_cycle;Max_cycle;Signal;HPM_P1;HPM_P2
2021/07/07 00:00:58;;;;;;;4.75;1.20;;;18.90;99.90;;;;;;4919762;29;20171;-86
2021/07/07 00:03:25;;;;;;;5.97;1.20;;;18.90;99.90;;;;;;4919686;29;20202;-86
2021/07/07 00:05:51;;;;;;;4.10;1.00;;;18.80;99.90;;;;;;4919477;29;20270;-86
2021/07/07 00:08:17;;;;;;;1.58;0.70;;;18.80;99.90;;;;;;4919546;29;20621;-86
2021/07/07 00:10:43;;;;;;;3.42;1.08;;;18.80;99.90;;;;;;4919578;29;20273;-86
2021/07/07 00:13:09;;;;;;;5.50;0.93;;;18.80;99.90;;;;;;4919083;29;20230;-86
2021/07/07 00:15:35;;;;;;;3.22;1.02;;;18.80;99.90;;;;;;4919384;29;20217;-86
2021/07/07 00:18:08;;;;;;;5.55;1.00;;;18.80;99.90;;;;;;4919349;29;20617;-86
2021/07/07 00:20:42;;;;;;;2.85;0.60;;;18.80;99.90;;;;;;4919338;29;20175;-86
2021/07/07 00:23:09;;;;;;;4.78;0.93;;;18.70;99.90;;;;;;4919117;29;20210;-86
2021/07/07 00:25:35;;;;;;;2.70;0.88;;;18.70;99.90;;;;;;4919237;29;20179;-86
2021/07/07 00:28:00;;;;;;;5.45;1.20;;;18.80;99.90;;;;;;4919231;29;20290;-86
2021/07/07 00:30:27;;;;;;;3.38;0.80;;;18.70;99.90;;;;;;4919124;29;20722;-86
2021/07/07 00:32:53;;;;;;;2.80;0.77;;;18.70;99.90;;;;;;4919010;29;20257;-86
2021/07/07 00:35:19;;;;;;;6.80;1.10;;;18.70;99.90;;;;;;4919029;29;20198;-86
2021/07/07 00:37:45;;;;;;;6.30;0.80;;;18.70;99.90;;;;;;4919094;29;20178;-86
2021/07/07 00:40:12;;;;;;;1.63;0.80;;;18.70;99.90;;;;;;4918683;29;20655;-86
2021/07/07 00:42:38;;;;;;;2.50;0.80;;;18.70;99.90;;;;;;4918492;29;20199;-86
2021/07/07 00:45:04;;;;;;;5.35;0.88;;;18.60;99.90;;;;;;4918671;29;20234;-86
2021/07/07 00:47:30;;;;;;;6.55;1.38;;;18.50;99.90;;;;;;4918729;29;20210;-86
2021/07/07 00:52:43;;;;;;;2.78;0.70;;;18.60;99.90;;;;;;4899045;29;20238;-91
2021/07/07 00:55:11;;;;;;;4.07;1.00;;;18.60;99.90;;;;;;4901042;29;20674;-91
2021/07/07 00:57:38;;;;;;;3.80;1.00;;;18.60;99.90;;;;;;4898391;29;20594;-89
2021/07/07 01:00:11;;;;;;;6.85;1.20;;;18.50;99.90;;;;;;4899778;29;20184;-89
2021/07/07 01:02:38;;;;;;;4.55;0.80;;;18.50;99.90;;;;;;4899958;29;20278;-90
2021/07/07 01:05:08;;;;;;;2.92;0.90;;;18.50;99.90;;;;;;4900154;29;20231;-89
2021/07/07 01:07:37;;;;;;;3.00;0.90;;;18.50;99.90;;;;;;4898798;29;20194;-89
2021/07/07 01:10:09;;;;;;;6.50;1.20;;;18.40;99.90;;;;;;4900222;29;20620;-89
2021/07/07 01:12:35;;;;;;;6.22;1.33;;;18.40;99.90;;;;;;4900032;29;20289;-92
2021/07/07 01:15:06;;;;;;;2.38;1.00;;;18.40;99.90;;;;;;4900205;29;20192;-92
2021/07/07 01:17:32;;;;;;;5.63;1.15;;;18.30;99.90;;;;;;4915917;29;20187;-92
2021/07/07 01:20:24;;;;;;;3.75;0.73;;;18.30;99.90;;;;;;4900118;29;20171;-92
2021/07/07 01:22:50;;;;;;;4.25;0.77;;;18.30;99.90;;;;;;4899956;29;20199;-92
2021/07/07 01:25:20;;;;;;;6.68;0.80;;;18.30;99.90;;;;;;4899922;29;20206;-92
2021/07/07 01:27:46;;;;;;;2.72;1.23;;;18.30;99.90;;;;;;4899952;29;20168;-92
2021/07/07 01:30:17;;;;;;;3.78;1.00;;;18.20;99.90;;;;;;4900096;29;20180;-93
2021/07/07 01:32:44;;;;;;;4.75;1.00;;;18.20;99.90;;;;;;4899999;29;20294;-92
2021/07/07 01:35:10;;;;;;;2.67;0.65;;;18.20;99.90;;;;;;4899818;29;20195;-92
2021/07/07 01:37:38;;;;;;;2.92;0.90;;;18.20;99.90;;;;;;4899972;29;20211;-92
2021/07/07 01:40:05;;;;;;;2.22;0.93;;;18.10;99.90;;;;;;4899875;29;20217;-92
2021/07/07 01:42:32;;;;;;;2.58;0.88;;;18.10;99.90;;;;;;4899856;29;20231;-92
2021/07/07 01:44:57;;;;;;;10.05;1.10;;;18.10;99.90;;;;;;4899822;29;20249;-92
2021/07/07 01:47:24;;;;;;;4.60;1.35;;;18.10;99.90;;;;;;4899680;29;20183;-93
2021/07/07 01:49:49;;;;;;;4.05;0.98;;;18.10;99.90;;;;;;4899757;29;20183;-93
2021/07/07 01:52:15;;;;;;;2.50;0.90;;;18.00;99.90;;;;;;4899009;29;20243;-92
2021/07/07 01:54:41;;;;;;;6.75;1.08;;;18.00;99.90;;;;;;4899590;29;20277;-92
2021/07/07 01:57:07;;;;;;;5.53;1.13;;;18.00;99.90;;;;;;4899727;29;20258;-92
2021/07/07 01:59:33;;;;;;;4.70;0.90;;;17.90;99.90;;;;;;4899517;29;20167;-91
2021/07/07 02:02:01;;;;;;;3.92;1.05;;;17.90;99.90;;;;;;4899460;29;20229;-92
2021/07/07 02:04:28;;;;;;;9.15;0.95;;;17.90;99.90;;;;;;4899547;29;20179;-93
2021/07/07 02:06:54;;;;;;;1.60;0.75;;;17.90;99.90;;;;;;4899313;29;20170;-93
2021/07/07 02:09:20;;;;;;;4.18;1.00;;;17.80;99.90;;;;;;4899445;29;20171;-92
2021/07/07 02:11:47;;;;;;;2.65;1.00;;;17.90;99.90;;;;;;4899199;29;20171;-92
2021/07/07 02:14:16;;;;;;;6.75;1.23;;;17.70;99.90;;;;;;4899352;29;20537;-93
2021/07/07 02:16:43;;;;;;;6.13;1.15;;;17.70;99.90;;;;;;4899261;29;20266;-93
2021/07/07 02:19:09;;;;;;;4.63;1.00;;;17.60;99.90;;;;;;4898934;29;20203;-93
2021/07/07 02:21:34;;;;;;;4.05;0.88;;;17.70;99.90;;;;;;4898985;29;20177;-92
2021/07/07 02:24:00;;;;;;;6.65;1.15;;;17.60;99.90;;;;;;4899097;29;20171;-92
2021/07/07 02:26:29;;;;;;;2.90;0.90;;;17.60;99.90;;;;;;4899101;29;20171;-92
2021/07/07 02:28:55;;;;;;;4.28;0.98;;;17.50;99.90;;;;;;4898881;29;20171;-92
2021/07/07 02:31:22;;;;;;;2.03;1.02;;;17.50;99.90;;;;;;4898647;29;20171;-93
2021/07/07 02:33:47;;;;;;;3.67;0.95;;;17.40;99.90;;;;;;4898392;29;20203;-93
2021/07/07 02:36:14;;;;;;;1.73;1.00;;;17.40;99.90;;;;;;4898797;29;20195;-92
2021/07/07 02:38:43;;;;;;;1.65;0.77;;;17.30;99.90;;;;;;4898942;29;20174;-92
2021/07/07 02:41:09;;;;;;;3.83;1.00;;;17.30;99.90;;;;;;4898628;29;20227;-92
2021/07/07 02:43:35;;;;;;;2.88;1.10;;;17.30;99.90;;;;;;4898822;29;20215;-92
2021/07/07 02:46:02;;;;;;;2.80;1.17;;;17.30;99.90;;;;;;4898766;29;20178;-92
2021/07/07 02:48:28;;;;;;;4.18;1.10;;;17.30;99.90;;;;;;4898645;29;20202;-93
2021/07/07 02:50:54;;;;;;;7.20;1.15;;;17.30;99.90;;;;;;4898248;29;20223;-92
2021/07/07 02:53:21;;;;;;;3.72;0.90;;;17.30;99.90;;;;;;4898644;29;20667;-92
2021/07/07 02:55:47;;;;;;;4.68;1.20;;;17.30;99.90;;;;;;4898616;29;20213;-91
2021/07/07 02:58:13;;;;;;;1.73;1.10;;;17.20;99.90;;;;;;4898432;29;20175;-92
2021/07/07 03:00:43;;;;;;;4.22;1.35;;;17.20;99.90;;;;;;4898492;29;20728;-92
2021/07/07 03:03:23;;;;;;;2.90;1.08;;;17.20;99.90;;;;;;4898313;29;20195;-92
2021/07/07 03:06:01;;;;;;;2.38;0.98;;;17.20;99.90;;;;;;4898160;29;20171;-92
2021/07/07 03:08:30;;;;;;;6.80;1.35;;;17.30;99.90;;;;;;4898242;29;20183;-92
2021/07/07 03:10:57;;;;;;;4.22;1.02;;;17.30;99.90;;;;;;4898347;29;20207;-92
2021/07/07 03:13:24;;;;;;;4.35;1.42;;;17.30;99.90;;;;;;4898116;29;20207;-93
2021/07/07 03:15:51;;;;;;;4.40;1.10;;;17.20;99.90;;;;;;4898379;29;20739;-92
2021/07/07 03:18:17;;;;;;;4.10;0.85;;;17.10;99.90;;;;;;4898256;29;20171;-92
2021/07/07 03:20:45;;;;;;;4.45;1.17;;;17.00;99.90;;;;;;4898219;29;20175;-92
2021/07/07 03:23:12;;;;;;;3.08;1.13;;;17.00;99.90;;;;;;4898158;29;20210;-92
2021/07/07 03:25:38;;;;;;;3.05;0.85;;;17.00;99.90;;;;;;4898544;29;20536;-92
2021/07/07 03:28:05;;;;;;;3.33;1.27;;;17.00;99.90;;;;;;4898055;29;20208;-92
2021/07/07 03:30:31;;;;;;;7.53;1.20;;;17.00;99.90;;;;;;4897546;29;20179;-92
2021/07/07 03:32:58;;;;;;;5.22;0.90;;;17.10;99.90;;;;;;4898105;29;20671;-93
2021/07/07 03:35:25;;;;;;;3.53;0.98;;;17.00;99.90;;;;;;4897971;29;20199;-92
2021/07/07 03:37:51;;;;;;;3.83;0.98;;;17.00;99.90;;;;;;4898032;29;20262;-92
2021/07/07 03:40:18;;;;;;;7.50;1.35;;;17.00;99.90;;;;;;4897887;29;20211;-92
2021/07/07 03:42:44;;;;;;;3.95;1.10;;;17.00;99.90;;;;;;4898102;29;20202;-93
2021/07/07 03:45:12;;;;;;;3.80;1.48;;;17.00;99.90;;;;;;4897927;29;20239;-92
2021/07/07 03:47:39;;;;;;;5.90;1.48;;;17.00;99.90;;;;;;4897480;29;20629;-93
2021/07/07 03:50:06;;;;;;;4.18;1.13;;;17.00;99.90;;;;;;4897975;29;20179;-93
2021/07/07 03:52:33;;;;;;;3.08;0.85;;;17.00;99.90;;;;;;4897624;29;20737;-92
2021/07/07 03:54:59;;;;;;;6.72;1.50;;;16.90;99.90;;;;;;4897716;29;20203;-92
2021/07/07 03:57:25;;;;;;;5.13;1.13;;;16.90;99.90;;;;;;4898014;29;20167;-92
2021/07/07 03:59:51;;;;;;;5.40;1.23;;;16.90;99.90;;;;;;4897752;29;20171;-92
2021/07/07 04:02:17;;;;;;;5.93;1.50;;;16.90;99.90;;;;;;4897768;29;20290;-92
2021/07/07 04:04:43;;;;;;;7.38;1.50;;;16.90;99.90;;;;;;4897799;29;20179;-92
2021/07/07 04:07:09;;;;;;;5.90;1.05;;;16.80;99.90;;;;;;4898038;29;20175;-92
2021/07/07 04:09:35;;;;;;;3.03;1.10;;;16.80;99.90;;;;;;4897958;29;20183;-91
2021/07/07 04:12:01;;;;;;;3.45;1.20;;;16.80;99.90;;;;;;4897735;29;20199;-92
2021/07/07 04:14:28;;;;;;;2.13;1.00;;;16.80;99.90;;;;;;4898132;29;20684;-92
2021/07/07 04:16:58;;;;;;;8.93;1.20;;;16.80;99.90;;;;;;4897702;29;20688;-92
2021/07/07 04:19:25;;;;;;;7.05;1.75;;;16.90;99.90;;;;;;4897830;29;20172;-92
2021/07/07 04:21:52;;;;;;;5.18;1.00;;;16.90;99.90;;;;;;4897833;29;20179;-92
2021/07/07 04:24:19;;;;;;;7.35;1.30;;;16.90;99.90;;;;;;4897814;29;20171;-92
2021/07/07 04:26:45;;;;;;;6.88;1.50;;;16.90;99.90;;;;;;4897815;29;20179;-92
2021/07/07 04:29:12;;;;;;;5.65;1.23;;;16.90;99.90;;;;;;4897900;29;20175;-92
2021/07/07 04:31:39;;;;;;;10.10;1.23;;;16.90;99.90;;;;;;4897655;29;20270;-92
2021/07/07 04:34:05;;;;;;;5.10;1.48;;;16.90;99.90;;;;;;4897804;29;20180;-91
2021/07/07 04:36:34;;;;;;;6.20;1.30;;;16.90;99.90;;;;;;4897696;29;20226;-92
2021/07/07 04:39:03;;;;;;;5.65;1.40;;;16.90;99.90;;;;;;4897767;29;20213;-92
2021/07/07 04:41:34;;;;;;;3.58;1.20;;;16.90;99.90;;;;;;4897683;29;20552;-92
2021/07/07 04:44:00;;;;;;;6.63;1.20;;;16.90;99.90;;;;;;4899838;29;20176;-92
2021/07/07 04:46:26;;;;;;;6.90;1.05;;;16.90;99.90;;;;;;4900972;29;20251;-92
2021/07/07 04:48:52;;;;;;;4.53;1.40;;;17.00;99.90;;;;;;4900843;29;20184;-93
2021/07/07 04:51:18;;;;;;;6.00;1.45;;;17.00;99.90;;;;;;4900416;29;20317;-92
2021/07/07 04:53:44;;;;;;;3.53;1.15;;;17.00;99.90;;;;;;4900626;29;20694;-92
2021/07/07 04:56:10;;;;;;;3.03;1.08;;;17.00;99.90;;;;;;4900596;29;20667;-91
2021/07/07 04:58:36;;;;;;;9.60;1.20;;;17.00;99.90;;;;;;4900730;29;20254;-91
2021/07/07 05:01:02;;;;;;;3.40;1.38;;;17.00;99.90;;;;;;4900742;29;20171;-92
2021/07/07 05:03:28;;;;;;;5.22;1.10;;;17.00;99.90;;;;;;4900442;29;20227;-92
2021/07/07 05:05:54;;;;;;;3.10;1.00;;;17.10;99.90;;;;;;4900521;29;20175;-93
2021/07/07 05:08:20;;;;;;;3.28;1.10;;;17.10;99.90;;;;;;4900494;29;20254;-92
2021/07/07 05:10:46;;;;;;;7.38;1.20;;;17.10;99.90;;;;;;4900600;29;20179;-92
2021/07/07 05:13:13;;;;;;;7.00;1.55;;;17.10;99.90;;;;;;4900462;29;20254;-92
2021/07/07 05:15:39;;;;;;;4.53;1.15;;;17.00;99.90;;;;;;4900239;29;20210;-92
2021/07/07 05:18:06;;;;;;;3.38;1.30;;;17.10;99.90;;;;;;4900493;29;20175;-92
2021/07/07 05:20:33;;;;;;;3.60;1.38;;;17.10;99.90;;;;;;4900321;29;20175;-92
2021/07/07 05:23:01;;;;;;;4.68;1.20;;;17.10;99.90;;;;;;4900305;29;20199;-92
2021/07/07 05:25:27;;;;;;;7.75;1.40;;;17.10;99.90;;;;;;4900233;29;20265;-92
2021/07/07 05:27:52;;;;;;;5.50;1.20;;;17.10;99.90;;;;;;4899712;29;20211;-92
2021/07/07 05:30:24;;;;;;;6.15;1.60;;;17.10;99.90;;;;;;4900166;29;20743;-92
2021/07/07 05:32:50;;;;;;;9.27;1.75;;;17.20;99.90;;;;;;4899969;29;20252;-92
2021/07/07 05:35:16;;;;;;;4.60;1.52;;;17.20;99.90;;;;;;4900011;29;20227;-92
2021/07/07 05:37:41;;;;;;;6.80;2.03;;;17.20;99.90;;;;;;4899758;29;20172;-93
2021/07/07 05:40:08;;;;;;;4.95;1.80;;;17.20;99.90;;;;;;4899513;29;20175;-92
2021/07/07 05:42:34;;;;;;;6.53;1.63;;;17.20;99.90;;;;;;4899728;29;20221;-92
2021/07/07 05:44:59;;;;;;;5.18;1.55;;;17.30;99.90;;;;;;4899754;29;20700;-92
2021/07/07 05:47:25;;;;;;;4.47;1.52;;;17.30;99.90;;;;;;4899755;29;20223;-93
2021/07/07 05:49:56;;;;;;;6.30;1.58;;;17.40;99.90;;;;;;4899689;29;20258;-92
2021/07/07 05:52:24;;;;;;;9.07;1.58;;;17.40;99.90;;;;;;4899677;29;20246;-92
2021/07/07 05:54:51;;;;;;;3.00;1.52;;;17.40;99.90;;;;;;4898743;29;20636;-92
2021/07/07 05:57:17;;;;;;;4.07;1.33;;;17.50;99.90;;;;;;4899621;29;20294;-92
2021/07/07 05:59:43;;;;;;;6.50;1.42;;;17.40;99.90;;;;;;4899393;29;20186;-93
2021/07/07 06:02:09;;;;;;;7.93;1.75;;;17.40;99.90;;;;;;4899392;29;20200;-92
2021/07/07 06:04:35;;;;;;;7.10;1.50;;;17.40;99.90;;;;;;4899388;29;20175;-92
2021/07/07 06:07:01;;;;;;;4.50;1.35;;;17.40;99.90;;;;;;4899314;29;20568;-91
2021/07/07 06:09:26;;;;;;;5.60;1.50;;;17.40;99.90;;;;;;4899339;29;20537;-91
2021/07/07 06:11:52;;;;;;;5.35;1.13;;;17.50;99.90;;;;;;4899152;29;20393;-91
2021/07/07 06:14:18;;;;;;;6.18;1.58;;;17.50;99.90;;;;;;4899167;29;20178;-92
2021/07/07 06:16:44;;;;;;;3.58;1.10;;;17.50;99.90;;;;;;4899066;29;20206;-91
2021/07/07 06:19:10;;;;;;;6.20;1.40;;;17.50;99.90;;;;;;4899174;29;20199;-91
2021/07/07 06:21:35;;;;;;;4.53;1.15;;;17.50;99.90;;;;;;4898791;29;20175;-90
2021/07/07 06:24:02;;;;;;;3.33;1.30;;;17.50;99.90;;;;;;4898698;29;20182;-89
2021/07/07 06:26:28;;;;;;;3.95;1.60;;;17.60;99.90;;;;;;4898517;29;20183;-91
2021/07/07 06:28:55;;;;;;;7.90;1.40;;;17.60;99.90;;;;;;4898437;29;20231;-91
2021/07/07 06:31:22;;;;;;;3.55;1.20;;;17.60;99.90;;;;;;4898332;29;20241;-92
2021/07/07 06:33:48;;;;;;;4.93;1.23;;;17.70;99.90;;;;;;4914043;29;20274;-91
2021/07/07 06:36:14;;;;;;;7.72;1.35;;;17.70;99.90;;;;;;4898098;29;20210;-91
2021/07/07 06:38:40;;;;;;;13.50;1.92;;;17.70;99.90;;;;;;4898433;29;20187;-89
2021/07/07 06:41:06;;;;;;;8.95;1.70;;;17.70;99.90;;;;;;4898248;29;20190;-90
2021/07/07 06:43:32;;;;;;;5.35;1.30;;;17.70;99.90;;;;;;4898091;29;20673;-89
2021/07/07 06:45:57;;;;;;;5.65;1.20;;;17.80;99.90;;;;;;4898539;29;20183;-94
2021/07/07 06:48:23;;;;;;;6.63;1.33;;;17.90;99.90;;;;;;4898342;29;20213;-93
2021/07/07 06:50:49;;;;;;;7.38;1.33;;;17.90;99.90;;;;;;4898257;29;20313;-94
2021/07/07 06:53:15;;;;;;;5.70;1.63;;;17.90;99.90;;;;;;4898552;29;20694;-94
2021/07/07 06:55:41;;;;;;;3.60;1.20;;;17.90;99.90;;;;;;4898391;29;20203;-94
2021/07/07 06:58:12;;;;;;;7.20;1.23;;;17.90;99.90;;;;;;4898555;29;20176;-90
2021/07/07 07:00:39;;;;;;;4.45;1.15;;;17.90;99.90;;;;;;4897969;29;20199;-86
2021/07/07 07:03:05;;;;;;;3.65;1.40;;;18.00;99.90;;;;;;4897530;29;20679;-87
2021/07/07 07:05:33;;;;;;;3.60;1.10;;;18.00;99.90;;;;;;4896822;29;20179;-88
2021/07/07 07:07:59;;;;;;;4.38;1.27;;;18.10;99.90;;;;;;4897433;29;20175;-87
2021/07/07 07:10:25;;;;;;;3.10;1.00;;;18.20;99.90;;;;;;4897437;29;20704;-88
2021/07/07 07:12:50;;;;;;;1.45;0.90;;;18.20;99.90;;;;;;4897339;29;20210;-87
2021/07/07 07:15:17;;;;;;;3.15;1.20;;;18.30;99.90;;;;;;4897477;29;20257;-88
2021/07/07 07:17:43;;;;;;;1.92;1.10;;;18.40;99.90;;;;;;4897810;29;20246;-90
2021/07/07 07:20:12;;;;;;;4.82;1.10;;;18.40;99.90;;;;;;4898151;29;20211;-90
2021/07/07 07:22:38;;;;;;;3.35;1.10;;;18.50;99.90;;;;;;4897567;29;20290;-90
2021/07/07 07:25:06;;;;;;;2.60;1.15;;;18.70;99.90;;;;;;4897763;29;20176;-91
2021/07/07 07:27:32;;;;;;;3.78;1.10;;;18.80;99.90;;;;;;4883198;29;20550;-89
2021/07/07 07:29:58;;;;;;;3.50;1.10;;;19.00;99.90;;;;;;4887658;29;20844;-90
2021/07/07 07:32:24;;;;;;;2.10;1.08;;;19.00;99.90;;;;;;4882398;29;20234;-92
2021/07/07 07:34:50;;;;;;;2.45;1.10;;;19.00;99.90;;;;;;4857373;29;20234;-91
2021/07/07 07:37:25;;;;;;;5.80;1.10;;;19.00;99.90;;;;;;4875106;29;20191;-91
2021/07/07 07:39:54;;;;;;;2.45;1.00;;;19.00;99.90;;;;;;4867578;29;20336;-92
2021/07/07 07:42:20;;;;;;;3.08;1.23;;;19.00;99.90;;;;;;4876951;29;20660;-89
2021/07/07 07:44:48;;;;;;;4.03;1.23;;;19.10;99.90;;;;;;4882314;29;20235;-90
2021/07/07 07:47:15;;;;;;;4.00;1.00;;;19.20;99.90;;;;;;4892388;29;20191;-90
2021/07/07 07:49:41;;;;;;;3.67;1.08;;;19.30;99.90;;;;;;4885386;29;20225;-90
2021/07/07 07:52:07;;;;;;;5.55;1.50;;;19.50;99.90;;;;;;4884197;29;20238;-91
2021/07/07 07:54:34;;;;;;;2.92;1.20;;;19.80;99.90;;;;;;4885535;29;20238;-90
2021/07/07 07:57:00;;;;;;;4.47;1.40;;;19.90;99.90;;;;;;4891886;29;20678;-90
2021/07/07 07:59:28;;;;;;;4.28;1.23;;;19.90;99.90;;;;;;4885359;29;20717;-90
2021/07/07 08:01:53;;;;;;;4.13;1.17;;;20.00;99.90;;;;;;4892909;29;20302;-92
2021/07/07 08:04:19;;;;;;;2.50;1.00;;;20.00;99.90;;;;;;4884508;29;20263;-89
2021/07/07 08:06:46;;;;;;;4.53;1.10;;;19.90;99.90;;;;;;4896932;29;20242;-92
2021/07/07 08:09:12;;;;;;;5.10;1.10;;;19.80;99.90;;;;;;4884498;29;20753;-91
2021/07/07 08:11:38;;;;;;;4.53;1.55;;;19.80;99.90;;;;;;4899028;29;20592;-90
2021/07/07 08:14:04;;;;;;;3.30;1.15;;;19.80;99.90;;;;;;4881278;29;20211;-93
2021/07/07 08:16:30;;;;;;;4.35;1.35;;;19.90;99.90;;;;;;4884463;29;20207;-91
2021/07/07 08:18:55;;;;;;;3.97;1.20;;;20.10;99.90;;;;;;4888444;29;20235;-91
2021/07/07 08:21:21;;;;;;;5.32;1.00;;;20.20;99.90;;;;;;4908917;29;20187;-88
2021/07/07 08:23:47;;;;;;;1.58;0.88;;;20.40;99.90;;;;;;4888804;29;20289;-91
2021/07/07 08:26:14;;;;;;;4.13;1.67;;;20.60;99.90;;;;;;4895664;29;20246;-90
2021/07/07 08:28:41;;;;;;;9.15;2.65;;;20.90;99.90;;;;;;4895409;29;20195;-92
2021/07/07 08:31:07;;;;;;;6.97;2.15;;;20.90;99.90;;;;;;4880633;29;20231;-90
2021/07/07 08:33:33;;;;;;;8.38;2.70;;;20.90;99.90;;;;;;4894300;29;20262;-89
2021/07/07 08:35:59;;;;;;;7.40;2.63;;;20.90;99.90;;;;;;4892502;29;20567;-87
2021/07/07 08:38:24;;;;;;;4.90;1.50;;;20.90;99.90;;;;;;4886499;29;20187;-88
2021/07/07 08:40:50;;;;;;;6.68;1.80;;;20.90;99.90;;;;;;4895395;29;20203;-90
2021/07/07 08:43:16;;;;;;;11.80;1.98;;;20.90;99.90;;;;;;4886755;29;20207;-90
2021/07/07 08:45:41;;;;;;;7.68;2.50;;;21.00;99.90;;;;;;4895762;29;20258;-90
2021/07/07 08:48:07;;;;;;;6.30;1.70;;;21.20;99.90;;;;;;4890500;29;20191;-91
2021/07/07 08:50:35;;;;;;;6.97;1.38;;;21.30;99.90;;;;;;4882890;29;20195;-90
2021/07/07 08:53:04;;;;;;;3.15;1.30;;;21.20;99.90;;;;;;4893692;29;20251;-90
2021/07/07 08:55:30;;;;;;;7.60;1.77;;;21.30;99.90;;;;;;4885966;29;20230;-93
2021/07/07 08:57:57;;;;;;;5.30;1.42;;;21.30;99.90;;;;;;4881012;29;20192;-93
2021/07/07 09:00:29;;;;;;;7.95;1.50;;;21.20;99.90;;;;;;4882866;29;20233;-93
2021/07/07 09:02:59;;;;;;;5.40;1.23;;;21.20;99.90;;;;;;4879818;29;20687;-93
2021/07/07 09:05:26;;;;;;;7.95;1.63;;;21.30;99.90;;;;;;4884331;29;20234;-93
2021/07/07 09:07:53;;;;;;;6.20;1.67;;;21.40;99.90;;;;;;4878190;29;20207;-94
2021/07/07 09:10:28;;;;;;;4.97;1.55;;;21.70;99.90;;;;;;4882265;29;20222;-93
2021/07/07 09:12:54;;;;;;;4.45;1.52;;;21.90;99.90;;;;;;4890933;29;20218;-93
2021/07/07 09:15:21;;;;;;;3.50;1.27;;;22.20;99.90;;;;;;4888835;29;20226;-93
2021/07/07 09:17:49;;;;;;;5.32;1.58;;;22.40;99.90;;;;;;4895738;29;20652;-92
2021/07/07 09:20:18;;;;;;;3.97;1.30;;;22.60;99.90;;;;;;4889018;29;20694;-93
2021/07/07 09:22:45;;;;;;;7.82;1.70;;;22.70;99.90;;;;;;4894131;29;20290;-93
2021/07/07 09:25:14;;;;;;;4.90;1.70;;;22.70;99.90;;;;;;4888467;29;20234;-93
2021/07/07 09:27:40;;;;;;;5.90;1.27;;;22.70;99.90;;;;;;4894589;29;20187;-94
2021/07/07 09:30:10;;;;;;;3.67;1.15;;;22.60;99.90;;;;;;4887797;29;20242;-93
2021/07/07 09:32:51;;;;;;;3.85;1.33;;;22.70;99.90;;;;;;4894498;29;20211;-93
2021/07/07 09:35:21;;;;;;;3.63;1.10;;;22.80;99.90;;;;;;4886370;29;20230;-92
2021/07/07 09:37:53;;;;;;;3.88;1.30;;;23.00;99.90;;;;;;4887771;29;20262;-92
2021/07/07 09:40:20;;;;;;;5.57;1.23;;;23.10;99.90;;;;;;4888161;29;20515;-92
2021/07/07 09:42:47;;;;;;;2.95;1.10;;;23.20;99.90;;;;;;4890634;29;20595;-91
2021/07/07 09:45:20;;;;;;;4.68;1.10;;;23.20;99.90;;;;;;4879542;29;20250;-92
2021/07/07 09:47:47;;;;;;;5.43;1.52;;;23.20;99.90;;;;;;4893051;29;20218;-92
2021/07/07 09:50:15;;;;;;;5.80;1.23;;;23.20;99.90;;;;;;4883490;29;20337;-91
2021/07/07 09:52:41;;;;;;;2.80;1.00;;;23.30;99.90;;;;;;4888676;29;20625;-92
2021/07/07 09:55:09;;;;;;;7.10;1.35;;;23.40;99.90;;;;;;4887350;29;20269;-92
2021/07/07 09:57:46;;;;;;;6.03;1.00;;;23.50;99.90;;;;;;4894936;29;20191;-92
2021/07/07 10:00:22;;;;;;;3.65;1.30;;;23.60;99.90;;;;;;4887826;29;20256;-92
2021/07/07 10:02:53;;;;;;;5.38;1.48;;;23.60;99.90;;;;;;4891902;29;20285;-92
2021/07/07 10:05:20;;;;;;;4.25;1.30;;;23.50;99.90;;;;;;4875924;29;20239;-91
2021/07/07 10:07:47;;;;;;;13.75;1.30;;;23.60;99.90;;;;;;4893144;29;20221;-93
2021/07/07 10:10:19;;;;;;;4.28;1.30;;;23.70;99.90;;;;;;4887569;29;20241;-92
2021/07/07 10:12:48;;;;;;;3.83;1.35;;;23.60;99.90;;;;;;4890069;29;20217;-93
2021/07/07 10:15:15;;;;;;;5.20;1.40;;;23.60;99.90;;;;;;4882032;29;20234;-92
2021/07/07 10:17:42;;;;;;;5.75;1.05;;;23.20;99.70;;;;;;4893783;29;20195;-92
2021/07/07 10:20:10;;;;;;;3.22;1.50;;;22.90;99.90;;;;;;4887436;29;20285;-92
2021/07/07 10:22:37;;;;;;;7.57;1.08;;;22.70;99.90;;;;;;4893857;29;20207;-92
2021/07/07 10:25:11;;;;;;;7.75;1.40;;;22.40;99.90;;;;;;4887663;29;20269;-93
2021/07/07 10:27:38;;;;;;;2.20;0.95;;;22.30;99.90;;;;;;4894703;29;20228;-93
2021/07/07 10:30:05;;;;;;;5.57;1.02;;;22.50;99.90;;;;;;4887367;29;20266;-93
2021/07/07 10:32:31;;;;;;;3.50;1.30;;;22.70;99.90;;;;;;4890667;29;20558;-93
2021/07/07 10:35:08;;;;;;;3.50;1.13;;;22.70;99.90;;;;;;4882814;29;20242;-93
2021/07/07 10:37:35;;;;;;;5.72;1.10;;;22.70;99.90;;;;;;4884510;29;20267;-93
2021/07/07 10:40:27;;;;;;;6.68;1.50;;;22.50;99.90;;;;;;4887716;29;20233;-93
2021/07/07 10:42:53;;;;;;;4.07;1.15;;;22.60;99.90;;;;;;4880394;29;20204;-92
2021/07/07 10:45:43;;;;;;;4.57;1.20;;;22.90;99.90;;;;;;4883968;29;20235;-93
2021/07/07 10:48:23;;;;;;;5.20;1.20;;;23.00;99.90;;;;;;4883483;29;20226;-93
2021/07/07 10:50:49;;;;;;;4.40;1.10;;;23.10;99.90;;;;;;4887258;29;20233;-93
2021/07/07 10:53:33;;;;;;;4.18;1.02;;;23.20;99.90;;;;;;4893990;29;20211;-93
2021/07/07 10:56:03;;;;;;;6.35;1.50;;;23.20;99.90;;;;;;4872349;29;20675;-93
2021/07/07 10:58:38;;;;;;;2.67;1.17;;;23.20;99.90;;;;;;4893778;29;20219;-93
2021/07/07 11:01:24;;;;;;;2.78;1.40;;;23.30;99.90;;;;;;4887397;29;20281;-93
2021/07/07 11:04:04;;;;;;;5.72;1.25;;;23.50;99.90;;;;;;4893206;29;20210;-93
2021/07/07 11:06:38;;;;;;;4.15;1.27;;;23.60;99.90;;;;;;4872370;29;20235;-94
2021/07/07 11:09:17;;;;;;;4.50;1.42;;;23.80;99.90;;;;;;4893197;29;20207;-93
2021/07/07 11:11:47;;;;;;;2.80;1.00;;;24.10;98.80;;;;;;4868998;29;20477;-92
2021/07/07 11:14:25;;;;;;;5.15;1.40;;;24.20;98.50;;;;;;4893952;29;20202;-93
2021/07/07 11:16:56;;;;;;;5.40;1.50;;;23.90;99.10;;;;;;4873484;29;20241;-93
2021/07/07 11:19:49;;;;;;;6.82;1.40;;;23.60;98.00;;;;;;4888288;29;20202;-92
2021/07/07 11:22:17;;;;;;;5.65;1.00;;;23.40;99.20;;;;;;4893508;29;20706;-93
2021/07/07 11:24:45;;;;;;;4.57;1.35;;;23.60;99.90;;;;;;4882289;29;20238;-93
2021/07/07 11:27:11;;;;;;;3.42;1.10;;;23.80;99.90;;;;;;4890735;29;20231;-92
2021/07/07 11:29:38;;;;;;;8.50;1.42;;;24.10;99.70;;;;;;4886779;29;20321;-93
2021/07/07 11:32:24;;;;;;;8.13;1.27;;;24.40;98.40;;;;;;4890334;29;20967;-92
2021/07/07 11:35:01;;;;;;;8.85;1.30;;;24.60;98.20;;;;;;4890184;29;20233;-93
2021/07/07 11:37:32;;;;;;;8.38;1.10;;;24.70;97.20;;;;;;4891930;29;20538;-93
2021/07/07 11:40:14;;;;;;;5.78;1.23;;;24.80;97.60;;;;;;4884949;29;20618;-92
2021/07/07 11:43:04;;;;;;;3.78;1.40;;;24.90;96.70;;;;;;4894248;29;20203;-93
2021/07/07 11:45:47;;;;;;;3.33;1.02;;;25.00;97.60;;;;;;4893940;29;20297;-93
2021/07/07 11:48:21;;;;;;;3.63;1.23;;;25.00;97.10;;;;;;4882429;29;20653;-92
2021/07/07 11:50:57;;;;;;;7.85;1.30;;;25.00;96.70;;;;;;4880969;29;20270;-94
2021/07/07 11:53:46;;;;;;;7.35;1.42;;;25.00;96.90;;;;;;4893176;29;20199;-94
2021/07/07 11:56:17;;;;;;;3.55;1.23;;;25.10;98.20;;;;;;4890383;29;20238;-93
2021/07/07 11:58:49;;;;;;;6.28;1.83;;;25.00;96.40;;;;;;4891282;29;20191;-92
2021/07/07 12:01:15;;;;;;;5.55;1.10;;;24.80;96.30;;;;;;4885159;29;20318;-92
2021/07/07 12:03:41;;;;;;;1.88;1.02;;;24.60;96.70;;;;;;4893066;29;20242;-92
2021/07/07 12:06:09;;;;;;;4.53;1.10;;;24.30;97.40;;;;;;4890757;29;20222;-93
2021/07/07 12:08:42;;;;;;;4.38;1.08;;;24.10;97.20;;;;;;4894688;29;20239;-93
2021/07/07 12:11:14;;;;;;;4.45;1.10;;;24.00;97.80;;;;;;4881596;29;20225;-91
2021/07/07 12:13:45;;;;;;;5.38;1.17;;;24.20;98.90;;;;;;4894007;29;20203;-93
2021/07/07 12:16:16;;;;;;;2.67;1.10;;;24.40;97.60;;;;;;4889463;29;20234;-92
2021/07/07 12:18:47;;;;;;;4.32;1.30;;;24.60;97.20;;;;;;4910535;29;20199;-92
2021/07/07 12:21:33;;;;;;;5.50;1.30;;;24.80;97.00;;;;;;4883717;29;20281;-93
2021/07/07 12:24:02;;;;;;;4.63;1.20;;;24.90;95.50;;;;;;4879300;29;20196;-94
2021/07/07 12:26:34;;;;;;;3.90;1.30;;;25.00;96.10;;;;;;4888862;29;20237;-92
2021/07/07 12:29:01;;;;;;;3.42;1.13;;;24.90;96.30;;;;;;4887161;29;20484;-93
2021/07/07 12:31:32;;;;;;;3.17;1.13;;;25.00;95.40;;;;;;4888732;29;20230;-94
2021/07/07 12:33:58;;;;;;;11.77;1.17;;;25.00;96.00;;;;;;4869104;29;20343;-94
2021/07/07 12:36:31;;;;;;;8.10;1.50;;;24.90;96.20;;;;;;4876814;29;20208;-94
2021/07/07 12:39:10;;;;;;;2.67;1.10;;;24.60;96.70;;;;;;4866853;29;20239;-95
2021/07/07 12:41:42;;;;;;;4.72;1.38;;;24.50;96.20;;;;;;4867362;29;20184;-94
2021/07/07 12:44:10;;;;;;;2.90;1.13;;;24.50;96.00;;;;;;4876575;29;20183;-95
2021/07/07 12:46:56;;;;;;;4.25;1.23;;;24.60;96.80;;;;;;4869506;29;20248;-95
2021/07/07 12:49:52;;;;;;;5.05;1.25;;;24.60;96.30;;;;;;4876691;29;20195;-95
2021/07/07 12:52:33;;;;;;;5.65;1.08;;;24.60;96.30;;;;;;4867221;29;20239;-95
2021/07/07 12:55:20;;;;;;;4.18;0.80;;;24.70;95.30;;;;;;4867076;29;20223;-94